Other Surface Observations
Issued by NWS Great Falls, MT

Home | Current Version | Previous Version | Text Only | Print | Product List | Glossary On
Versions: 1 2 3 4 5 6 7 8 9 10 11 12 13 14 15 16 17 18 19 20 21 22 23 24 25 26 27 28 29 30 31 32 33 34 35 36 37 38 39 40 41 42 43 44 45 46 47 48 49 50
000
SXUS55 KTFX 010006
OSOTFX

AREA AWOS OBSERVATIONS
NATIONAL WEATHER SERVICE GREAT FALLS MT
0505 PM MDT Mon Aug 31 2015

METAR K6S8 312255Z AUTO 22005KT 40SM 29/03 A2988 RMK A01 T02940027
METAR K7S0 312255Z AUTO 13003KT 40SM 22/05 A3000 RMK A01 T02220050
METAR K9S5 312255Z AUTO 24006KT 25SM 28/M14 A2992 RMK A01 T02771138
METAR KM75 312255Z AUTO 20004KT 40SM 25/04 A2979 RMK A01 T02500044
METAR KRPX 312255Z AUTO 25008KT 40SM 26/M02 A2982 RMK A01 T02551016



USA.gov is the U.S. government's official web portal to all federal, state and local government web resources and services.